sensor_id;sensor_type;location;lat;lon;timestamp;P1;durP1;ratioP1;P2;durP2;ratioP2
40533;SDS011;26233;51.894;10.192;2024-01-10T00:01:04;8.67;;;6.40;;
40533;SDS011;26233;51.894;10.192;2024-01-10T00:03:31;9.43;;;6.53;;
40533;SDS011;26233;51.894;10.192;2024-01-10T00:05:58;8.27;;;6.30;;
40533;SDS011;26233;51.894;10.192;2024-01-10T00:08:25;8.90;;;6.83;;
40533;SDS011;26233;51.894;10.192;2024-01-10T00:10:52;8.73;;;6.67;;
40533;SDS011;26233;51.894;10.192;2024-01-10T00:13:20;9.63;;;6.90;;
40533;SDS011;26233;51.894;10.192;2024-01-10T00:15:47;10.23;;;6.70;;
40533;SDS011;26233;51.894;10.192;2024-01-10T00:18:14;9.03;;;6.77;;
40533;SDS011;26233;51.894;10.192;2024-01-10T00:20:42;10.47;;;7.33;;
40533;SDS011;26233;51.894;10.192;2024-01-10T00:23:09;9.13;;;6.97;;
40533;SDS011;26233;51.894;10.192;2024-01-10T00:25:36;8.63;;;6.20;;
40533;SDS011;26233;51.894;10.192;2024-01-10T00:28:05;9.70;;;6.60;;
40533;SDS011;26233;51.894;10.192;2024-01-10T00:30:32;7.97;;;6.43;;
40533;SDS011;26233;51.894;10.192;2024-01-10T00:32:59;8.47;;;6.17;;
40533;SDS011;26233;51.894;10.192;2024-01-10T00:35:26;7.90;;;5.67;;
40533;SDS011;26233;51.894;10.192;2024-01-10T00:37:53;8.07;;;5.77;;
40533;SDS011;26233;51.894;10.192;2024-01-10T00:40:20;8.07;;;5.60;;
40533;SDS011;26233;51.894;10.192;2024-01-10T00:42:47;6.83;;;5.73;;
40533;SDS011;26233;51.894;10.192;2024-01-10T00:45:16;7.20;;;5.70;;
40533;SDS011;26233;51.894;10.192;2024-01-10T00:47:43;7.07;;;6.07;;
40533;SDS011;26233;51.894;10.192;2024-01-10T00:50:10;9.03;;;6.10;;
40533;SDS011;26233;51.894;10.192;2024-01-10T00:52:37;7.40;;;5.90;;
40533;SDS011;26233;51.894;10.192;2024-01-10T00:55:05;10.10;;;6.07;;
40533;SDS011;26233;51.894;10.192;2024-01-10T00:57:32;7.87;;;5.50;;
40533;SDS011;26233;51.894;10.192;2024-01-10T00:59:59;7.93;;;6.27;;
40533;SDS011;26233;51.894;10.192;2024-01-10T01:02:29;8.13;;;5.87;;
40533;SDS011;26233;51.894;10.192;2024-01-10T01:04:56;7.77;;;6.27;;
40533;SDS011;26233;51.894;10.192;2024-01-10T01:07:23;9.50;;;7.03;;
40533;SDS011;26233;51.894;10.192;2024-01-10T01:09:50;9.67;;;6.40;;
40533;SDS011;26233;51.894;10.192;2024-01-10T01:12:17;9.93;;;6.33;;
40533;SDS011;26233;51.894;10.192;2024-01-10T01:14:44;10.47;;;7.17;;
40533;SDS011;26233;51.894;10.192;2024-01-10T01:17:12;8.20;;;5.97;;
40533;SDS011;26233;51.894;10.192;2024-01-10T01:19:40;8.37;;;6.33;;
40533;SDS011;26233;51.894;10.192;2024-01-10T01:22:07;10.07;;;6.90;;
40533;SDS011;26233;51.894;10.192;2024-01-10T01:24:34;8.90;;;6.67;;
40533;SDS011;26233;51.894;10.192;2024-01-10T01:27:02;9.13;;;7.13;;
40533;SDS011;26233;51.894;10.192;2024-01-10T01:29:29;10.83;;;6.80;;
40533;SDS011;26233;51.894;10.192;2024-01-10T01:31:56;8.97;;;6.57;;
40533;SDS011;26233;51.894;10.192;2024-01-10T01:34:23;8.00;;;6.50;;
40533;SDS011;26233;51.894;10.192;2024-01-10T01:36:52;10.20;;;6.80;;
40533;SDS011;26233;51.894;10.192;2024-01-10T01:39:19;9.03;;;6.77;;
40533;SDS011;26233;51.894;10.192;2024-01-10T01:41:46;9.23;;;6.80;;
40533;SDS011;26233;51.894;10.192;2024-01-10T01:44:13;8.93;;;6.30;;
40533;SDS011;26233;51.894;10.192;2024-01-10T01:46:40;8.90;;;6.30;;
40533;SDS011;26233;51.894;10.192;2024-01-10T01:49:08;7.47;;;5.90;;
40533;SDS011;26233;51.894;10.192;2024-01-10T01:51:36;9.37;;;6.93;;
40533;SDS011;26233;51.894;10.192;2024-01-10T01:54:06;9.07;;;6.83;;
40533;SDS011;26233;51.894;10.192;2024-01-10T01:56:35;7.90;;;6.20;;
40533;SDS011;26233;51.894;10.192;2024-01-10T01:59:03;7.53;;;6.03;;
40533;SDS011;26233;51.894;10.192;2024-01-10T02:01:31;7.40;;;5.73;;
40533;SDS011;26233;51.894;10.192;2024-01-10T02:03:59;8.63;;;6.47;;
40533;SDS011;26233;51.894;10.192;2024-01-10T02:06:28;8.07;;;6.27;;
40533;SDS011;26233;51.894;10.192;2024-01-10T02:08:55;9.67;;;6.43;;
40533;SDS011;26233;51.894;10.192;2024-01-10T02:11:25;10.73;;;7.30;;
40533;SDS011;26233;51.894;10.192;2024-01-10T02:13:52;9.20;;;6.97;;
40533;SDS011;26233;51.894;10.192;2024-01-10T02:16:20;9.80;;;6.93;;
40533;SDS011;26233;51.894;10.192;2024-01-10T02:18:48;9.17;;;6.60;;
40533;SDS011;26233;51.894;10.192;2024-01-10T02:21:15;7.20;;;6.20;;
40533;SDS011;26233;51.894;10.192;2024-01-10T02:23:42;9.07;;;5.80;;
40533;SDS011;26233;51.894;10.192;2024-01-10T02:26:11;7.60;;;6.10;;
40533;SDS011;26233;51.894;10.192;2024-01-10T02:28:38;9.00;;;6.63;;
40533;SDS011;26233;51.894;10.192;2024-01-10T02:31:05;10.20;;;6.87;;
40533;SDS011;26233;51.894;10.192;2024-01-10T02:33:33;9.90;;;6.73;;
40533;SDS011;26233;51.894;10.192;2024-01-10T02:36:00;8.57;;;5.93;;
40533;SDS011;26233;51.894;10.192;2024-01-10T02:38:27;9.77;;;6.17;;
40533;SDS011;26233;51.894;10.192;2024-01-10T02:40:54;9.33;;;6.47;;
40533;SDS011;26233;51.894;10.192;2024-01-10T02:43:23;7.73;;;5.80;;
40533;SDS011;26233;51.894;10.192;2024-01-10T02:45:50;9.07;;;6.20;;
40533;SDS011;26233;51.894;10.192;2024-01-10T02:48:17;8.60;;;5.80;;
40533;SDS011;26233;51.894;10.192;2024-01-10T02:50:44;7.63;;;5.63;;
40533;SDS011;26233;51.894;10.192;2024-01-10T02:53:11;6.70;;;5.17;;
40533;SDS011;26233;51.894;10.192;2024-01-10T02:55:38;7.83;;;5.57;;
40533;SDS011;26233;51.894;10.192;2024-01-10T02:58:05;7.57;;;5.73;;
40533;SDS011;26233;51.894;10.192;2024-01-10T03:00:33;7.97;;;5.37;;
40533;SDS011;26233;51.894;10.192;2024-01-10T03:03:00;6.63;;;5.77;;
40533;SDS011;26233;51.894;10.192;2024-01-10T03:05:27;7.87;;;6.20;;
40533;SDS011;26233;51.894;10.192;2024-01-10T03:07:54;9.57;;;6.73;;
40533;SDS011;26233;51.894;10.192;2024-01-10T03:10:21;9.70;;;6.93;;
40533;SDS011;26233;51.894;10.192;2024-01-10T03:12:48;9.40;;;6.57;;
40533;SDS011;26233;51.894;10.192;2024-01-10T03:15:15;9.37;;;6.30;;
40533;SDS011;26233;51.894;10.192;2024-01-10T03:17:44;11.07;;;7.47;;
40533;SDS011;26233;51.894;10.192;2024-01-10T03:20:11;7.03;;;5.97;;
40533;SDS011;26233;51.894;10.192;2024-01-10T03:22:37;7.67;;;6.10;;
40533;SDS011;26233;51.894;10.192;2024-01-10T03:25:04;8.90;;;7.10;;
40533;SDS011;26233;51.894;10.192;2024-01-10T03:27:32;7.33;;;5.80;;
40533;SDS011;26233;51.894;10.192;2024-01-10T03:29:59;9.47;;;6.57;;
40533;SDS011;26233;51.894;10.192;2024-01-10T03:32:26;10.50;;;7.33;;
40533;SDS011;26233;51.894;10.192;2024-01-10T03:34:54;8.07;;;6.50;;
40533;SDS011;26233;51.894;10.192;2024-01-10T03:37:21;10.27;;;6.80;;
40533;SDS011;26233;51.894;10.192;2024-01-10T03:39:48;8.93;;;6.90;;
40533;SDS011;26233;51.894;10.192;2024-01-10T03:42:15;9.20;;;7.27;;
40533;SDS011;26233;51.894;10.192;2024-01-10T03:44:42;9.17;;;6.80;;
40533;SDS011;26233;51.894;10.192;2024-01-10T03:47:09;8.30;;;6.67;;
40533;SDS011;26233;51.894;10.192;2024-01-10T03:49:36;10.47;;;7.13;;
40533;SDS011;26233;51.894;10.192;2024-01-10T03:52:05;10.17;;;7.33;;
40533;SDS011;26233;51.894;10.192;2024-01-10T03:54:32;10.10;;;6.97;;
40533;SDS011;26233;51.894;10.192;2024-01-10T03:56:59;9.80;;;7.57;;
40533;SDS011;26233;51.894;10.192;2024-01-10T03:59:26;11.13;;;7.60;;
40533;SDS011;26233;51.894;10.192;2024-01-10T04:01:53;11.60;;;7.73;;
40533;SDS011;26233;51.894;10.192;2024-01-10T04:04:20;10.67;;;7.93;;
40533;SDS011;26233;51.894;10.192;2024-01-10T04:06:47;14.63;;;9.33;;
40533;SDS011;26233;51.894;10.192;2024-01-10T04:09:16;10.90;;;8.20;;
40533;SDS011;26233;51.894;10.192;2024-01-10T04:11:43;12.67;;;8.53;;
40533;SDS011;26233;51.894;10.192;2024-01-10T04:14:10;11.70;;;8.03;;
40533;SDS011;26233;51.894;10.192;2024-01-10T04:16:37;10.27;;;7.37;;
40533;SDS011;26233;51.894;10.192;2024-01-10T04:19:04;11.37;;;8.07;;
40533;SDS011;26233;51.894;10.192;2024-01-10T04:21:31;10.87;;;7.83;;
40533;SDS011;26233;51.894;10.192;2024-01-10T04:23:58;12.13;;;7.67;;
40533;SDS011;26233;51.894;10.192;2024-01-10T04:26:27;11.30;;;7.00;;
40533;SDS011;26233;51.894;10.192;2024-01-10T04:28:53;10.93;;;7.13;;
40533;SDS011;26233;51.894;10.192;2024-01-10T04:31:21;11.37;;;7.10;;
40533;SDS011;26233;51.894;10.192;2024-01-10T04:33:48;10.33;;;7.87;;
40533;SDS011;26233;51.894;10.192;2024-01-10T04:36:15;10.87;;;8.33;;
40533;SDS011;26233;51.894;10.192;2024-01-10T04:38:42;11.70;;;8.40;;
40533;SDS011;26233;51.894;10.192;2024-01-10T04:41:09;9.47;;;7.73;;
40533;SDS011;26233;51.894;10.192;2024-01-10T04:43:37;10.43;;;8.37;;
40533;SDS011;26233;51.894;10.192;2024-01-10T04:46:04;11.70;;;7.97;;
40533;SDS011;26233;51.894;10.192;2024-01-10T04:48:31;11.97;;;8.10;;
40533;SDS011;26233;51.894;10.192;2024-01-10T04:50:58;10.93;;;7.87;;
40533;SDS011;26233;51.894;10.192;2024-01-10T04:53:25;10.23;;;8.03;;
40533;SDS011;26233;51.894;10.192;2024-01-10T04:55:52;10.47;;;8.00;;
40533;SDS011;26233;51.894;10.192;2024-01-10T04:58:19;10.03;;;7.90;;
40533;SDS011;26233;51.894;10.192;2024-01-10T05:00:47;10.73;;;8.23;;
40533;SDS011;26233;51.894;10.192;2024-01-10T05:03:15;12.23;;;8.87;;
40533;SDS011;26233;51.894;10.192;2024-01-10T05:05:42;10.33;;;7.90;;
40533;SDS011;26233;51.894;10.192;2024-01-10T05:08:09;11.57;;;8.33;;
40533;SDS011;26233;51.894;10.192;2024-01-10T05:10:36;13.00;;;8.33;;
40533;SDS011;26233;51.894;10.192;2024-01-10T05:13:03;10.77;;;7.93;;
40533;SDS011;26233;51.894;10.192;2024-01-10T05:15:30;12.03;;;7.63;;
40533;SDS011;26233;51.894;10.192;2024-01-10T05:17:59;10.87;;;8.57;;
40533;SDS011;26233;51.894;10.192;2024-01-10T05:20:26;10.73;;;7.87;;
40533;SDS011;26233;51.894;10.192;2024-01-10T05:22:53;9.33;;;7.73;;
40533;SDS011;26233;51.894;10.192;2024-01-10T05:25:23;12.27;;;8.63;;
40533;SDS011;26233;51.894;10.192;2024-01-10T05:27:52;14.30;;;9.00;;
40533;SDS011;26233;51.894;10.192;2024-01-10T05:30:19;12.20;;;9.00;;
40533;SDS011;26233;51.894;10.192;2024-01-10T05:32:46;14.97;;;10.00;;
40533;SDS011;26233;51.894;10.192;2024-01-10T05:35:15;11.60;;;8.13;;
40533;SDS011;26233;51.894;10.192;2024-01-10T05:37:42;13.73;;;8.90;;
40533;SDS011;26233;51.894;10.192;2024-01-10T05:40:09;13.60;;;9.57;;
40533;SDS011;26233;51.894;10.192;2024-01-10T05:42:37;13.27;;;8.97;;
40533;SDS011;26233;51.894;10.192;2024-01-10T05:45:04;12.53;;;8.47;;
40533;SDS011;26233;51.894;10.192;2024-01-10T05:47:33;11.97;;;8.87;;
40533;SDS011;26233;51.894;10.192;2024-01-10T05:50:00;12.10;;;9.17;;
40533;SDS011;26233;51.894;10.192;2024-01-10T05:52:29;13.13;;;9.07;;
40533;SDS011;26233;51.894;10.192;2024-01-10T05:54:57;11.30;;;8.40;;
40533;SDS011;26233;51.894;10.192;2024-01-10T05:57:26;12.47;;;8.20;;
40533;SDS011;26233;51.894;10.192;2024-01-10T05:59:53;13.20;;;8.70;;
40533;SDS011;26233;51.894;10.192;2024-01-10T06:02:22;11.47;;;8.50;;
40533;SDS011;26233;51.894;10.192;2024-01-10T06:04:49;13.20;;;8.67;;
40533;SDS011;26233;51.894;10.192;2024-01-10T06:07:16;11.43;;;8.93;;
40533;SDS011;26233;51.894;10.192;2024-01-10T06:09:44;11.97;;;8.47;;
40533;SDS011;26233;51.894;10.192;2024-01-10T06:12:11;13.43;;;9.13;;
40533;SDS011;26233;51.894;10.192;2024-01-10T06:14:38;14.83;;;9.37;;
40533;SDS011;26233;51.894;10.192;2024-01-10T06:17:06;14.57;;;9.90;;
40533;SDS011;26233;51.894;10.192;2024-01-10T06:19:33;12.87;;;9.37;;
40533;SDS011;26233;51.894;10.192;2024-01-10T06:22:00;12.27;;;9.30;;
40533;SDS011;26233;51.894;10.192;2024-01-10T06:24:27;15.27;;;10.17;;
40533;SDS011;26233;51.894;10.192;2024-01-10T06:26:55;14.57;;;8.90;;
40533;SDS011;26233;51.894;10.192;2024-01-10T06:29:22;13.93;;;9.70;;
40533;SDS011;26233;51.894;10.192;2024-01-10T06:31:49;12.53;;;9.13;;
40533;SDS011;26233;51.894;10.192;2024-01-10T06:34:16;14.40;;;9.37;;
40533;SDS011;26233;51.894;10.192;2024-01-10T06:36:43;11.63;;;8.80;;
40533;SDS011;26233;51.894;10.192;2024-01-10T06:39:10;12.73;;;8.57;;
40533;SDS011;26233;51.894;10.192;2024-01-10T06:41:38;13.33;;;8.50;;
40533;SDS011;26233;51.894;10.192;2024-01-10T06:44:06;11.17;;;8.40;;
40533;SDS011;26233;51.894;10.192;2024-01-10T06:46:33;11.67;;;8.30;;
40533;SDS011;26233;51.894;10.192;2024-01-10T06:49:01;11.57;;;8.43;;
40533;SDS011;26233;51.894;10.192;2024-01-10T06:51:28;12.03;;;8.07;;
40533;SDS011;26233;51.894;10.192;2024-01-10T06:53:55;16.13;;;10.90;;
40533;SDS011;26233;51.894;10.192;2024-01-10T06:56:28;14.20;;;10.30;;
40533;SDS011;26233;51.894;10.192;2024-01-10T06:58:55;14.50;;;9.70;;
40533;SDS011;26233;51.894;10.192;2024-01-10T07:01:24;11.33;;;8.57;;
40533;SDS011;26233;51.894;10.192;2024-01-10T07:03:51;11.77;;;8.40;;
40533;SDS011;26233;51.894;10.192;2024-01-10T07:06:19;13.17;;;9.30;;
40533;SDS011;26233;51.894;10.192;2024-01-10T07:08:47;11.70;;;9.07;;
40533;SDS011;26233;51.894;10.192;2024-01-10T07:11:15;12.40;;;9.50;;
40533;SDS011;26233;51.894;10.192;2024-01-10T07:13:44;13.47;;;9.73;;
40533;SDS011;26233;51.894;10.192;2024-01-10T07:16:11;13.70;;;9.97;;
40533;SDS011;26233;51.894;10.192;2024-01-10T07:18:41;12.27;;;8.57;;
40533;SDS011;26233;51.894;10.192;2024-01-10T07:21:09;12.73;;;9.33;;
40533;SDS011;26233;51.894;10.192;2024-01-10T07:23:36;13.33;;;9.27;;
40533;SDS011;26233;51.894;10.192;2024-01-10T07:26:05;12.63;;;8.97;;
40533;SDS011;26233;51.894;10.192;2024-01-10T07:28:32;14.57;;;8.80;;
40533;SDS011;26233;51.894;10.192;2024-01-10T07:30:59;13.70;;;9.40;;
40533;SDS011;26233;51.894;10.192;2024-01-10T07:33:27;13.57;;;9.03;;
40533;SDS011;26233;51.894;10.192;2024-01-10T07:35:57;10.40;;;8.10;;
40533;SDS011;26233;51.894;10.192;2024-01-10T07:38:24;11.53;;;8.90;;
40533;SDS011;26233;51.894;10.192;2024-01-10T07:40:50;12.93;;;9.63;;
40533;SDS011;26233;51.894;10.192;2024-01-10T07:43:17;12.20;;;9.07;;
40533;SDS011;26233;51.894;10.192;2024-01-10T07:45:44;12.70;;;9.27;;
40533;SDS011;26233;51.894;10.192;2024-01-10T07:48:11;13.10;;;9.57;;
40533;SDS011;26233;51.894;10.192;2024-01-10T07:50:39;11.83;;;9.47;;
40533;SDS011;26233;51.894;10.192;2024-01-10T07:53:07;14.10;;;9.47;;
40533;SDS011;26233;51.894;10.192;2024-01-10T07:55:34;13.37;;;9.47;;
40533;SDS011;26233;51.894;10.192;2024-01-10T07:58:01;12.80;;;9.20;;
40533;SDS011;26233;51.894;10.192;2024-01-10T08:00:30;13.03;;;9.50;;
40533;SDS011;26233;51.894;10.192;2024-01-10T08:02:57;13.43;;;10.23;;
40533;SDS011;26233;51.894;10.192;2024-01-10T08:05:24;12.63;;;9.10;;
40533;SDS011;26233;51.894;10.192;2024-01-10T08:07:51;13.57;;;9.77;;
40533;SDS011;26233;51.894;10.192;2024-01-10T08:10:20;14.03;;;9.40;;
40533;SDS011;26233;51.894;10.192;2024-01-10T08:12:47;15.23;;;9.97;;
40533;SDS011;26233;51.894;10.192;2024-01-10T08:15:14;14.00;;;9.87;;
40533;SDS011;26233;51.894;10.192;2024-01-10T08:17:41;15.10;;;9.53;;
40533;SDS011;26233;51.894;10.192;2024-01-10T08:20:09;13.57;;;10.17;;
40533;SDS011;26233;51.894;10.192;2024-01-10T08:22:39;13.47;;;9.90;;
40533;SDS011;26233;51.894;10.192;2024-01-10T08:25:09;17.13;;;10.43;;
40533;SDS011;26233;51.894;10.192;2024-01-10T08:27:37;15.93;;;10.20;;
40533;SDS011;26233;51.894;10.192;2024-01-10T08:30:05;14.27;;;11.07;;
40533;SDS011;26233;51.894;10.192;2024-01-10T08:32:34;17.90;;;11.53;;
40533;SDS011;26233;51.894;10.192;2024-01-10T08:35:02;15.73;;;11.70;;
40533;SDS011;26233;51.894;10.192;2024-01-10T08:37:30;15.50;;;11.73;;
40533;SDS011;26233;51.894;10.192;2024-01-10T08:39:58;16.30;;;12.27;;
40533;SDS011;26233;51.894;10.192;2024-01-10T08:42:31;18.30;;;12.90;;
40533;SDS011;26233;51.894;10.192;2024-01-10T08:45:00;16.23;;;11.63;;
40533;SDS011;26233;51.894;10.192;2024-01-10T08:47:27;16.27;;;12.27;;
40533;SDS011;26233;51.894;10.192;2024-01-10T08:49:56;18.27;;;12.83;;
40533;SDS011;26233;51.894;10.192;2024-01-10T08:52:23;19.33;;;13.57;;
40533;SDS011;26233;51.894;10.192;2024-01-10T08:54:50;19.57;;;13.43;;
40533;SDS011;26233;51.894;10.192;2024-01-10T08:57:17;16.50;;;12.70;;
40533;SDS011;26233;51.894;10.192;2024-01-10T08:59:44;16.80;;;13.00;;
40533;SDS011;26233;51.894;10.192;2024-01-10T09:02:13;17.63;;;13.63;;
40533;SDS011;26233;51.894;10.192;2024-01-10T09:04:40;15.53;;;12.50;;
40533;SDS011;26233;51.894;10.192;2024-01-10T09:07:07;17.30;;;13.63;;
40533;SDS011;26233;51.894;10.192;2024-01-10T09:09:35;18.27;;;13.47;;
40533;SDS011;26233;51.894;10.192;2024-01-10T09:12:02;16.97;;;13.50;;
40533;SDS011;26233;51.894;10.192;2024-01-10T09:14:30;15.70;;;13.27;;
40533;SDS011;26233;51.894;10.192;2024-01-10T09:16:57;14.77;;;12.53;;
40533;SDS011;26233;51.894;10.192;2024-01-10T09:19:29;16.40;;;12.60;;
40533;SDS011;26233;51.894;10.192;2024-01-10T09:21:56;19.80;;;13.97;;
40533;SDS011;26233;51.894;10.192;2024-01-10T09:24:23;15.77;;;12.37;;
40533;SDS011;26233;51.894;10.192;2024-01-10T09:26:51;16.93;;;13.13;;
40533;SDS011;26233;51.894;10.192;2024-01-10T09:29:18;15.80;;;13.23;;
40533;SDS011;26233;51.894;10.192;2024-01-10T09:31:45;16.33;;;14.10;;
40533;SDS011;26233;51.894;10.192;2024-01-10T09:34:12;16.63;;;13.50;;
40533;SDS011;26233;51.894;10.192;2024-01-10T09:36:41;16.57;;;13.67;;
40533;SDS011;26233;51.894;10.192;2024-01-10T09:39:08;14.23;;;12.77;;
40533;SDS011;26233;51.894;10.192;2024-01-10T09:41:40;19.23;;;15.00;;
40533;SDS011;26233;51.894;10.192;2024-01-10T09:44:13;16.67;;;14.20;;
40533;SDS011;26233;51.894;10.192;2024-01-10T09:46:42;18.07;;;14.43;;
40533;SDS011;26233;51.894;10.192;2024-01-10T09:49:12;19.77;;;15.07;;
40533;SDS011;26233;51.894;10.192;2024-01-10T09:51:41;17.43;;;14.57;;
40533;SDS011;26233;51.894;10.192;2024-01-10T09:54:08;17.70;;;14.63;;
40533;SDS011;26233;51.894;10.192;2024-01-10T09:56:35;19.90;;;14.57;;
40533;SDS011;26233;51.894;10.192;2024-01-10T09:59:02;18.03;;;15.57;;
40533;SDS011;26233;51.894;10.192;2024-01-10T10:01:35;18.80;;;15.53;;
40533;SDS011;26233;51.894;10.192;2024-01-10T10:04:04;20.53;;;16.53;;
40533;SDS011;26233;51.894;10.192;2024-01-10T10:06:32;20.70;;;16.80;;
40533;SDS011;26233;51.894;10.192;2024-01-10T10:09:01;20.13;;;16.30;;
40533;SDS011;26233;51.894;10.192;2024-01-10T10:11:29;20.93;;;15.30;;
40533;SDS011;26233;51.894;10.192;2024-01-10T10:13:57;18.97;;;15.10;;
40533;SDS011;26233;51.894;10.192;2024-01-10T10:16:39;20.83;;;16.73;;
40533;SDS011;26233;51.894;10.192;2024-01-10T10:19:06;21.17;;;16.17;;
40533;SDS011;26233;51.894;10.192;2024-01-10T10:21:36;19.47;;;15.57;;
40533;SDS011;26233;51.894;10.192;2024-01-10T10:24:05;18.87;;;16.50;;
40533;SDS011;26233;51.894;10.192;2024-01-10T10:26:35;21.33;;;17.03;;
40533;SDS011;26233;51.894;10.192;2024-01-10T10:29:02;22.00;;;16.17;;
40533;SDS011;26233;51.894;10.192;2024-01-10T10:31:30;21.37;;;16.33;;
40533;SDS011;26233;51.894;10.192;2024-01-10T10:33:58;23.30;;;16.50;;
40533;SDS011;26233;51.894;10.192;2024-01-10T10:36:27;20.27;;;16.20;;
40533;SDS011;26233;51.894;10.192;2024-01-10T10:38:58;22.43;;;17.03;;
40533;SDS011;26233;51.894;10.192;2024-01-10T10:41:30;22.43;;;17.43;;
40533;SDS011;26233;51.894;10.192;2024-01-10T10:43:58;22.03;;;17.13;;
40533;SDS011;26233;51.894;10.192;2024-01-10T10:46:26;21.10;;;16.40;;
40533;SDS011;26233;51.894;10.192;2024-01-10T10:48:54;21.53;;;16.50;;
40533;SDS011;26233;51.894;10.192;2024-01-10T10:51:27;23.20;;;17.73;;
40533;SDS011;26233;51.894;10.192;2024-01-10T10:53:59;20.60;;;16.30;;
40533;SDS011;26233;51.894;10.192;2024-01-10T10:56:27;20.90;;;16.17;;
40533;SDS011;26233;51.894;10.192;2024-01-10T10:59:00;23.40;;;18.47;;
40533;SDS011;26233;51.894;10.192;2024-01-10T11:01:29;20.37;;;16.90;;
40533;SDS011;26233;51.894;10.192;2024-01-10T11:03:58;20.87;;;16.77;;
40533;SDS011;26233;51.894;10.192;2024-01-10T11:06:25;23.70;;;17.97;;
40533;SDS011;26233;51.894;10.192;2024-01-10T11:08:56;21.43;;;17.27;;
40533;SDS011;26233;51.894;10.192;2024-01-10T11:11:34;21.67;;;17.67;;
40533;SDS011;26233;51.894;10.192;2024-01-10T11:14:19;22.10;;;17.17;;
40533;SDS011;26233;51.894;10.192;2024-01-10T11:17:07;20.47;;;17.07;;
40533;SDS011;26233;51.894;10.192;2024-01-10T11:20:05;21.40;;;16.83;;
40533;SDS011;26233;51.894;10.192;2024-01-10T11:22:47;21.13;;;17.87;;
40533;SDS011;26233;51.894;10.192;2024-01-10T11:25:35;21.17;;;16.90;;
40533;SDS011;26233;51.894;10.192;2024-01-10T11:28:04;22.13;;;16.53;;
40533;SDS011;26233;51.894;10.192;2024-01-10T11:30:34;28.50;;;21.47;;
40533;SDS011;26233;51.894;10.192;2024-01-10T11:33:12;26.43;;;19.63;;
40533;SDS011;26233;51.894;10.192;2024-01-10T11:38:41;24.33;;;18.00;;
40533;SDS011;26233;51.894;10.192;2024-01-10T11:41:10;20.90;;;16.87;;
40533;SDS011;26233;51.894;10.192;2024-01-10T11:43:39;21.27;;;17.10;;
40533;SDS011;26233;51.894;10.192;2024-01-10T11:46:06;21.93;;;17.37;;
40533;SDS011;26233;51.894;10.192;2024-01-10T11:48:37;27.47;;;21.50;;
40533;SDS011;26233;51.894;10.192;2024-01-10T11:51:05;28.47;;;21.73;;
40533;SDS011;26233;51.894;10.192;2024-01-10T11:53:40;23.63;;;19.13;;
40533;SDS011;26233;51.894;10.192;2024-01-10T11:56:11;25.40;;;19.77;;
40533;SDS011;26233;51.894;10.192;2024-01-10T11:58:57;23.60;;;17.97;;
40533;SDS011;26233;51.894;10.192;2024-01-10T12:01:29;20.40;;;16.97;;
40533;SDS011;26233;51.894;10.192;2024-01-10T12:03:56;23.00;;;16.77;;
40533;SDS011;26233;51.894;10.192;2024-01-10T12:06:25;23.37;;;16.70;;
40533;SDS011;26233;51.894;10.192;2024-01-10T12:08:52;22.67;;;16.83;;
40533;SDS011;26233;51.894;10.192;2024-01-10T12:11:19;22.60;;;17.17;;
40533;SDS011;26233;51.894;10.192;2024-01-10T12:13:46;22.23;;;16.80;;
40533;SDS011;26233;51.894;10.192;2024-01-10T12:16:15;21.53;;;17.17;;
40533;SDS011;26233;51.894;10.192;2024-01-10T12:18:42;21.70;;;17.87;;
40533;SDS011;26233;51.894;10.192;2024-01-10T12:21:10;20.33;;;16.43;;
40533;SDS011;26233;51.894;10.192;2024-01-10T12:23:37;22.90;;;18.07;;
40533;SDS011;26233;51.894;10.192;2024-01-10T12:26:06;23.73;;;17.63;;
40533;SDS011;26233;51.894;10.192;2024-01-10T12:28:37;21.60;;;17.30;;
40533;SDS011;26233;51.894;10.192;2024-01-10T12:31:05;23.47;;;17.97;;
40533;SDS011;26233;51.894;10.192;2024-01-10T12:33:35;22.53;;;18.07;;
40533;SDS011;26233;51.894;10.192;2024-01-10T12:36:05;26.53;;;18.77;;
40533;SDS011;26233;51.894;10.192;2024-01-10T12:38:34;24.23;;;19.13;;
40533;SDS011;26233;51.894;10.192;2024-01-10T12:41:02;25.70;;;19.87;;
40533;SDS011;26233;51.894;10.192;2024-01-10T12:43:30;25.60;;;19.37;;
40533;SDS011;26233;51.894;10.192;2024-01-10T12:46:07;26.63;;;21.10;;
40533;SDS011;26233;51.894;10.192;2024-01-10T12:48:38;24.53;;;19.70;;
40533;SDS011;26233;51.894;10.192;2024-01-10T12:51:07;27.70;;;19.53;;
40533;SDS011;26233;51.894;10.192;2024-01-10T12:53:35;25.00;;;20.00;;
40533;SDS011;26233;51.894;10.192;2024-01-10T12:56:04;23.90;;;19.33;;
40533;SDS011;26233;51.894;10.192;2024-01-10T12:58:32;25.47;;;19.87;;
40533;SDS011;26233;51.894;10.192;2024-01-10T13:01:01;27.13;;;21.90;;
40533;SDS011;26233;51.894;10.192;2024-01-10T13:03:29;23.67;;;19.57;;
40533;SDS011;26233;51.894;10.192;2024-01-10T13:05:57;21.70;;;18.57;;
40533;SDS011;26233;51.894;10.192;2024-01-10T13:08:24;21.83;;;18.17;;
40533;SDS011;26233;51.894;10.192;2024-01-10T13:10:51;22.80;;;18.40;;
40533;SDS011;26233;51.894;10.192;2024-01-10T13:13:19;23.07;;;18.90;;
40533;SDS011;26233;51.894;10.192;2024-01-10T13:15:46;23.70;;;19.17;;
40533;SDS011;26233;51.894;10.192;2024-01-10T13:18:14;23.47;;;18.97;;
40533;SDS011;26233;51.894;10.192;2024-01-10T13:20:41;21.30;;;17.73;;
40533;SDS011;26233;51.894;10.192;2024-01-10T13:23:11;23.27;;;18.00;;
40533;SDS011;26233;51.894;10.192;2024-01-10T13:25:38;23.20;;;18.23;;
40533;SDS011;26233;51.894;10.192;2024-01-10T13:28:05;25.33;;;19.03;;
40533;SDS011;26233;51.894;10.192;2024-01-10T13:30:32;23.23;;;18.57;;
40533;SDS011;26233;51.894;10.192;2024-01-10T13:32:59;23.97;;;19.17;;
40533;SDS011;26233;51.894;10.192;2024-01-10T13:35:26;23.53;;;18.40;;
40533;SDS011;26233;51.894;10.192;2024-01-10T13:37:53;28.73;;;21.80;;
40533;SDS011;26233;51.894;10.192;2024-01-10T13:40:22;29.00;;;21.07;;
40533;SDS011;26233;51.894;10.192;2024-01-10T13:42:52;25.33;;;19.83;;
40533;SDS011;26233;51.894;10.192;2024-01-10T13:45:19;27.53;;;20.77;;
40533;SDS011;26233;51.894;10.192;2024-01-10T13:47:46;25.10;;;19.83;;
40533;SDS011;26233;51.894;10.192;2024-01-10T13:50:14;23.83;;;19.00;;
40533;SDS011;26233;51.894;10.192;2024-01-10T13:52:41;24.33;;;19.17;;
40533;SDS011;26233;51.894;10.192;2024-01-10T13:55:08;24.07;;;19.60;;
40533;SDS011;26233;51.894;10.192;2024-01-10T13:57:38;24.63;;;18.77;;
40533;SDS011;26233;51.894;10.192;2024-01-10T14:00:05;26.33;;;19.90;;
40533;SDS011;26233;51.894;10.192;2024-01-10T14:02:34;23.27;;;18.17;;
40533;SDS011;26233;51.894;10.192;2024-01-10T14:05:02;22.47;;;17.90;;
40533;SDS011;26233;51.894;10.192;2024-01-10T14:07:31;22.00;;;18.10;;
40533;SDS011;26233;51.894;10.192;2024-01-10T14:09:59;23.57;;;18.63;;
40533;SDS011;26233;51.894;10.192;2024-01-10T14:12:26;22.60;;;18.50;;
40533;SDS011;26233;51.894;10.192;2024-01-10T14:14:56;24.60;;;18.43;;
40533;SDS011;26233;51.894;10.192;2024-01-10T14:17:25;24.43;;;18.20;;
40533;SDS011;26233;51.894;10.192;2024-01-10T14:19:52;23.13;;;18.43;;
40533;SDS011;26233;51.894;10.192;2024-01-10T14:22:19;21.43;;;17.30;;
40533;SDS011;26233;51.894;10.192;2024-01-10T14:24:46;23.87;;;18.97;;
40533;SDS011;26233;51.894;10.192;2024-01-10T14:27:13;23.70;;;18.53;;